Terminal Aerodrome Forecast
Issued by NWS Grand Forks, ND

Home | Current Version | Previous Version | Graphics & Text | Print | Product List | Glossary On
Versions: 1 2 3 4 5 6 7 8 9 10 11 12 13 14 15 16 17 18 19 20
000
FTUS43 KFGF 142339
TAFGFK
TAF
KGFK 142339Z 1500/1524 34017G27KT 1SM BLSN BKN040
     FM150200 34018G27KT 4SM BLSN BKN040
     FM150400 34017KT P6SM BKN035
     FM151600 34017KT 5SM BLSN BKN035
     FM151800 35018KT 2SM BLSN BKN025
     FM152000 34018KT 6SM BLSN BKN030
     FM152100 34017KT P6SM BKN030
     FM152200 34016KT P6SM SCT035=

USA.gov is the U.S. government's official web portal to all federal, state and local government web resources and services.